Bayport, Minnesota
Current Conditions -  °F | °C
As of 8:51 PM on Sunday 23 Nov 2014 (Local Time) from K21D Reporting Station
Light Rain Light Rain  
Wind Chill: 30°   Ceiling: 700
Heat Index: 37°   Visibility: 10mi
Dew Point: 36°   Wind: 10mph
Humidity: 93%   Direction: 320°NW
Pressure: 29.34"   Gusts: NA
Location:  45.02°N, 92.78°W
Report Text: K21D 240251Z AUTO 32009KT 10SM -RA OVC007 03/02 A2934 RMK AO2
Loading
Personal Weather Stations






























Interactive Weather Map New forecast layout! Learn more

10-Day Weather Forecast

Advertisements
Track Severe Weather on mobile